sensor_id;sensor_type;location;lat;lon;timestamp;P1;durP1;ratioP1;P2;durP2;ratioP2
10653;SDS011;5375;51.250;6.776;2023-06-01T00:00:40;3.20;;;1.90;;
10653;SDS011;5375;51.250;6.776;2023-06-01T00:03:06;1.90;;;1.65;;
10653;SDS011;5375;51.250;6.776;2023-06-01T00:05:32;3.13;;;2.30;;
10653;SDS011;5375;51.250;6.776;2023-06-01T00:07:58;2.58;;;1.70;;
10653;SDS011;5375;51.250;6.776;2023-06-01T00:10:24;3.75;;;2.00;;
10653;SDS011;5375;51.250;6.776;2023-06-01T00:12:50;2.83;;;1.67;;
10653;SDS011;5375;51.250;6.776;2023-06-01T00:15:16;2.38;;;1.83;;
10653;SDS011;5375;51.250;6.776;2023-06-01T00:17:42;3.13;;;1.65;;
10653;SDS011;5375;51.250;6.776;2023-06-01T00:20:08;3.13;;;2.00;;
10653;SDS011;5375;51.250;6.776;2023-06-01T00:22:34;3.83;;;1.98;;
10653;SDS011;5375;51.250;6.776;2023-06-01T00:25:04;3.13;;;2.03;;
10653;SDS011;5375;51.250;6.776;2023-06-01T00:27:33;2.65;;;2.00;;
10653;SDS011;5375;51.250;6.776;2023-06-01T00:29:58;3.25;;;1.80;;
10653;SDS011;5375;51.250;6.776;2023-06-01T00:32:25;4.00;;;2.03;;
10653;SDS011;5375;51.250;6.776;2023-06-01T00:34:50;2.97;;;1.70;;
10653;SDS011;5375;51.250;6.776;2023-06-01T00:37:16;2.55;;;1.67;;
10653;SDS011;5375;51.250;6.776;2023-06-01T00:39:42;3.63;;;2.22;;
10653;SDS011;5375;51.250;6.776;2023-06-01T00:42:08;2.85;;;1.77;;
10653;SDS011;5375;51.250;6.776;2023-06-01T00:44:36;3.17;;;2.03;;
10653;SDS011;5375;51.250;6.776;2023-06-01T00:47:01;3.03;;;1.77;;
10653;SDS011;5375;51.250;6.776;2023-06-01T00:49:27;3.45;;;2.03;;
10653;SDS011;5375;51.250;6.776;2023-06-01T00:51:53;3.67;;;2.17;;
10653;SDS011;5375;51.250;6.776;2023-06-01T00:54:19;2.92;;;1.90;;
10653;SDS011;5375;51.250;6.776;2023-06-01T00:56:45;3.20;;;1.92;;
10653;SDS011;5375;51.250;6.776;2023-06-01T00:59:12;3.53;;;2.25;;
10653;SDS011;5375;51.250;6.776;2023-06-01T01:01:38;1.90;;;1.65;;
10653;SDS011;5375;51.250;6.776;2023-06-01T01:04:06;3.75;;;2.03;;
10653;SDS011;5375;51.250;6.776;2023-06-01T01:12:14;3.67;;;2.00;;
10653;SDS011;5375;51.250;6.776;2023-06-01T01:18:02;2.25;;;1.80;;
10653;SDS011;5375;51.250;6.776;2023-06-01T01:20:35;2.60;;;2.05;;
10653;SDS011;5375;51.250;6.776;2023-06-01T01:23:10;2.25;;;1.77;;
10653;SDS011;5375;51.250;6.776;2023-06-01T01:28:37;2.22;;;1.90;;
10653;SDS011;5375;51.250;6.776;2023-06-01T01:31:16;2.65;;;1.90;;
10653;SDS011;5375;51.250;6.776;2023-06-01T01:33:43;2.53;;;1.90;;
10653;SDS011;5375;51.250;6.776;2023-06-01T01:36:11;2.17;;;1.63;;
10653;SDS011;5375;51.250;6.776;2023-06-01T01:38:37;1.70;;;1.60;;
10653;SDS011;5375;51.250;6.776;2023-06-01T01:41:03;3.00;;;1.58;;
10653;SDS011;5375;51.250;6.776;2023-06-01T01:43:30;8.52;;;2.00;;
10653;SDS011;5375;51.250;6.776;2023-06-01T01:45:59;6.18;;;1.90;;
10653;SDS011;5375;51.250;6.776;2023-06-01T01:48:48;3.42;;;1.85;;
10653;SDS011;5375;51.250;6.776;2023-06-01T01:51:52;3.28;;;1.90;;
10653;SDS011;5375;51.250;6.776;2023-06-01T01:54:22;2.83;;;2.03;;
10653;SDS011;5375;51.250;6.776;2023-06-01T01:56:50;3.35;;;1.90;;
10653;SDS011;5375;51.250;6.776;2023-06-01T01:59:19;2.33;;;1.55;;
10653;SDS011;5375;51.250;6.776;2023-06-01T02:01:45;1.92;;;1.70;;
10653;SDS011;5375;51.250;6.776;2023-06-01T02:04:12;3.42;;;1.83;;
10653;SDS011;5375;51.250;6.776;2023-06-01T02:06:44;3.45;;;1.85;;
10653;SDS011;5375;51.250;6.776;2023-06-01T02:09:09;3.30;;;1.80;;
10653;SDS011;5375;51.250;6.776;2023-06-01T02:11:35;3.15;;;1.67;;
10653;SDS011;5375;51.250;6.776;2023-06-01T02:14:01;2.03;;;1.80;;
10653;SDS011;5375;51.250;6.776;2023-06-01T02:16:26;3.55;;;2.05;;
10653;SDS011;5375;51.250;6.776;2023-06-01T02:18:52;2.53;;;1.80;;
10653;SDS011;5375;51.250;6.776;2023-06-01T02:21:18;2.15;;;1.85;;
10653;SDS011;5375;51.250;6.776;2023-06-01T02:23:45;2.60;;;1.80;;
10653;SDS011;5375;51.250;6.776;2023-06-01T02:26:11;2.05;;;1.80;;
10653;SDS011;5375;51.250;6.776;2023-06-01T02:28:37;3.05;;;1.65;;
10653;SDS011;5375;51.250;6.776;2023-06-01T02:31:06;3.35;;;1.77;;
10653;SDS011;5375;51.250;6.776;2023-06-01T02:33:32;3.00;;;1.77;;
10653;SDS011;5375;51.250;6.776;2023-06-01T02:35:58;2.60;;;1.90;;
10653;SDS011;5375;51.250;6.776;2023-06-01T02:38:24;2.65;;;1.70;;
10653;SDS011;5375;51.250;6.776;2023-06-01T02:40:50;2.00;;;1.80;;
10653;SDS011;5375;51.250;6.776;2023-06-01T02:43:16;2.20;;;1.70;;
10653;SDS011;5375;51.250;6.776;2023-06-01T02:45:41;2.67;;;2.10;;
10653;SDS011;5375;51.250;6.776;2023-06-01T02:48:07;3.05;;;2.10;;
10653;SDS011;5375;51.250;6.776;2023-06-01T02:50:33;5.30;;;1.70;;
10653;SDS011;5375;51.250;6.776;2023-06-01T02:52:59;2.85;;;1.80;;
10653;SDS011;5375;51.250;6.776;2023-06-01T02:55:25;10.05;;;2.10;;
10653;SDS011;5375;51.250;6.776;2023-06-01T02:57:50;2.45;;;1.80;;
10653;SDS011;5375;51.250;6.776;2023-06-01T03:00:16;1.83;;;1.70;;
10653;SDS011;5375;51.250;6.776;2023-06-01T03:02:42;3.40;;;1.85;;
10653;SDS011;5375;51.250;6.776;2023-06-01T03:05:09;3.38;;;1.90;;
10653;SDS011;5375;51.250;6.776;2023-06-01T03:07:39;2.97;;;2.00;;
10653;SDS011;5375;51.250;6.776;2023-06-01T03:10:05;4.50;;;1.80;;
10653;SDS011;5375;51.250;6.776;2023-06-01T03:12:32;6.25;;;2.13;;
10653;SDS011;5375;51.250;6.776;2023-06-01T03:14:57;2.90;;;1.75;;
10653;SDS011;5375;51.250;6.776;2023-06-01T03:17:23;2.15;;;1.73;;
10653;SDS011;5375;51.250;6.776;2023-06-01T03:19:49;3.35;;;1.70;;
10653;SDS011;5375;51.250;6.776;2023-06-01T03:22:15;1.88;;;1.60;;
10653;SDS011;5375;51.250;6.776;2023-06-01T03:24:41;2.25;;;1.88;;
10653;SDS011;5375;51.250;6.776;2023-06-01T03:27:07;2.58;;;1.75;;
10653;SDS011;5375;51.250;6.776;2023-06-01T03:29:33;2.08;;;1.70;;
10653;SDS011;5375;51.250;6.776;2023-06-01T03:31:59;2.20;;;1.60;;
10653;SDS011;5375;51.250;6.776;2023-06-01T03:34:25;2.42;;;1.80;;
10653;SDS011;5375;51.250;6.776;2023-06-01T03:36:52;1.73;;;1.55;;
10653;SDS011;5375;51.250;6.776;2023-06-01T03:39:18;2.47;;;1.90;;
10653;SDS011;5375;51.250;6.776;2023-06-01T03:41:44;3.05;;;1.90;;
10653;SDS011;5375;51.250;6.776;2023-06-01T03:44:10;2.78;;;1.95;;
10653;SDS011;5375;51.250;6.776;2023-06-01T03:46:37;4.30;;;2.08;;
10653;SDS011;5375;51.250;6.776;2023-06-01T03:49:03;2.53;;;2.30;;
10653;SDS011;5375;51.250;6.776;2023-06-01T03:51:30;2.03;;;1.80;;
10653;SDS011;5375;51.250;6.776;2023-06-01T03:53:56;2.38;;;2.05;;
10653;SDS011;5375;51.250;6.776;2023-06-01T03:56:22;3.95;;;2.20;;
10653;SDS011;5375;51.250;6.776;2023-06-01T03:58:49;3.50;;;2.20;;
10653;SDS011;5375;51.250;6.776;2023-06-01T04:01:15;5.40;;;1.83;;
10653;SDS011;5375;51.250;6.776;2023-06-01T04:03:45;2.88;;;1.90;;
10653;SDS011;5375;51.250;6.776;2023-06-01T04:06:13;2.58;;;2.22;;
10653;SDS011;5375;51.250;6.776;2023-06-01T04:08:45;3.83;;;1.98;;
10653;SDS011;5375;51.250;6.776;2023-06-01T04:11:15;3.25;;;2.17;;
10653;SDS011;5375;51.250;6.776;2023-06-01T04:13:42;3.10;;;2.10;;
10653;SDS011;5375;51.250;6.776;2023-06-01T04:16:08;3.75;;;2.20;;
10653;SDS011;5375;51.250;6.776;2023-06-01T04:18:37;6.43;;;2.60;;
10653;SDS011;5375;51.250;6.776;2023-06-01T04:21:03;3.35;;;2.15;;
10653;SDS011;5375;51.250;6.776;2023-06-01T04:23:30;2.13;;;1.92;;
10653;SDS011;5375;51.250;6.776;2023-06-01T04:25:57;2.58;;;2.10;;
10653;SDS011;5375;51.250;6.776;2023-06-01T04:28:24;2.42;;;2.15;;
10653;SDS011;5375;51.250;6.776;2023-06-01T04:30:50;3.40;;;2.20;;
10653;SDS011;5375;51.250;6.776;2023-06-01T04:33:16;2.55;;;2.17;;
10653;SDS011;5375;51.250;6.776;2023-06-01T04:35:42;3.17;;;2.58;;
10653;SDS011;5375;51.250;6.776;2023-06-01T04:38:09;2.85;;;2.20;;
10653;SDS011;5375;51.250;6.776;2023-06-01T04:40:35;5.78;;;4.25;;
10653;SDS011;5375;51.250;6.776;2023-06-01T04:43:00;5.72;;;3.50;;
10653;SDS011;5375;51.250;6.776;2023-06-01T04:45:28;4.13;;;3.33;;
10653;SDS011;5375;51.250;6.776;2023-06-01T04:47:58;4.25;;;3.35;;
10653;SDS011;5375;51.250;6.776;2023-06-01T04:50:25;4.38;;;3.33;;
10653;SDS011;5375;51.250;6.776;2023-06-01T04:52:53;3.72;;;3.00;;
10653;SDS011;5375;51.250;6.776;2023-06-01T04:55:20;3.65;;;3.00;;
10653;SDS011;5375;51.250;6.776;2023-06-01T04:57:46;4.53;;;3.35;;
10653;SDS011;5375;51.250;6.776;2023-06-01T05:00:13;4.68;;;3.55;;
10653;SDS011;5375;51.250;6.776;2023-06-01T05:02:42;5.57;;;3.65;;
10653;SDS011;5375;51.250;6.776;2023-06-01T05:05:09;4.15;;;3.58;;
10653;SDS011;5375;51.250;6.776;2023-06-01T05:07:35;6.18;;;3.50;;
10653;SDS011;5375;51.250;6.776;2023-06-01T05:10:02;4.95;;;3.55;;
10653;SDS011;5375;51.250;6.776;2023-06-01T05:12:31;3.83;;;3.30;;
10653;SDS011;5375;51.250;6.776;2023-06-01T05:14:57;4.20;;;3.13;;
10653;SDS011;5375;51.250;6.776;2023-06-01T05:17:23;4.45;;;3.97;;
10653;SDS011;5375;51.250;6.776;2023-06-01T05:19:49;6.70;;;3.60;;
10653;SDS011;5375;51.250;6.776;2023-06-01T05:22:15;4.43;;;3.45;;
10653;SDS011;5375;51.250;6.776;2023-06-01T05:24:41;4.47;;;3.50;;
10653;SDS011;5375;51.250;6.776;2023-06-01T05:27:07;4.70;;;3.60;;
10653;SDS011;5375;51.250;6.776;2023-06-01T05:29:33;5.13;;;3.83;;
10653;SDS011;5375;51.250;6.776;2023-06-01T05:31:59;5.60;;;4.32;;
10653;SDS011;5375;51.250;6.776;2023-06-01T05:34:25;5.40;;;4.05;;
10653;SDS011;5375;51.250;6.776;2023-06-01T05:36:50;3.53;;;3.22;;
10653;SDS011;5375;51.250;6.776;2023-06-01T05:39:16;4.70;;;3.63;;
10653;SDS011;5375;51.250;6.776;2023-06-01T05:41:42;5.45;;;4.10;;
10653;SDS011;5375;51.250;6.776;2023-06-01T05:44:08;5.07;;;4.10;;
10653;SDS011;5375;51.250;6.776;2023-06-01T05:46:34;4.78;;;4.18;;
10653;SDS011;5375;51.250;6.776;2023-06-01T05:49:03;4.53;;;3.70;;
10653;SDS011;5375;51.250;6.776;2023-06-01T05:51:29;6.05;;;4.22;;
10653;SDS011;5375;51.250;6.776;2023-06-01T05:53:55;6.07;;;4.18;;
10653;SDS011;5375;51.250;6.776;2023-06-01T05:56:21;5.60;;;4.30;;
10653;SDS011;5375;51.250;6.776;2023-06-01T05:58:47;5.60;;;4.20;;
10653;SDS011;5375;51.250;6.776;2023-06-01T06:01:17;5.68;;;4.03;;
10653;SDS011;5375;51.250;6.776;2023-06-01T06:03:43;4.63;;;4.13;;
10653;SDS011;5375;51.250;6.776;2023-06-01T06:06:10;5.80;;;4.43;;
10653;SDS011;5375;51.250;6.776;2023-06-01T06:08:36;5.50;;;4.20;;
10653;SDS011;5375;51.250;6.776;2023-06-01T06:11:02;5.38;;;4.43;;
10653;SDS011;5375;51.250;6.776;2023-06-01T06:13:27;5.88;;;4.15;;
10653;SDS011;5375;51.250;6.776;2023-06-01T06:15:53;5.50;;;4.72;;
10653;SDS011;5375;51.250;6.776;2023-06-01T06:18:20;7.18;;;4.90;;
10653;SDS011;5375;51.250;6.776;2023-06-01T06:20:46;6.47;;;5.18;;
10653;SDS011;5375;51.250;6.776;2023-06-01T06:23:12;5.70;;;4.72;;
10653;SDS011;5375;51.250;6.776;2023-06-01T06:25:38;18.38;;;14.00;;
10653;SDS011;5375;51.250;6.776;2023-06-01T06:28:08;12.68;;;9.25;;
10653;SDS011;5375;51.250;6.776;2023-06-01T06:30:34;17.52;;;13.18;;
10653;SDS011;5375;51.250;6.776;2023-06-01T06:32:59;15.68;;;12.27;;
10653;SDS011;5375;51.250;6.776;2023-06-01T06:35:25;13.07;;;10.88;;
10653;SDS011;5375;51.250;6.776;2023-06-01T06:37:50;14.32;;;11.77;;
10653;SDS011;5375;51.250;6.776;2023-06-01T06:40:16;18.10;;;13.23;;
10653;SDS011;5375;51.250;6.776;2023-06-01T06:42:43;18.88;;;14.15;;
10653;SDS011;5375;51.250;6.776;2023-06-01T06:45:09;17.52;;;13.95;;
10653;SDS011;5375;51.250;6.776;2023-06-01T06:47:36;19.75;;;14.27;;
10653;SDS011;5375;51.250;6.776;2023-06-01T06:50:02;16.38;;;12.98;;
10653;SDS011;5375;51.250;6.776;2023-06-01T06:52:28;15.85;;;13.10;;
10653;SDS011;5375;51.250;6.776;2023-06-01T06:54:53;17.02;;;13.55;;
10653;SDS011;5375;51.250;6.776;2023-06-01T06:57:19;16.55;;;12.93;;
10653;SDS011;5375;51.250;6.776;2023-06-01T06:59:45;14.90;;;11.90;;
10653;SDS011;5375;51.250;6.776;2023-06-01T07:02:11;15.55;;;12.13;;
10653;SDS011;5375;51.250;6.776;2023-06-01T07:04:38;16.52;;;12.60;;
10653;SDS011;5375;51.250;6.776;2023-06-01T07:07:04;14.68;;;11.93;;
10653;SDS011;5375;51.250;6.776;2023-06-01T07:09:30;17.52;;;13.15;;
10653;SDS011;5375;51.250;6.776;2023-06-01T07:11:56;15.40;;;12.05;;
10653;SDS011;5375;51.250;6.776;2023-06-01T07:14:22;15.98;;;12.30;;
10653;SDS011;5375;51.250;6.776;2023-06-01T07:16:48;18.73;;;13.07;;
10653;SDS011;5375;51.250;6.776;2023-06-01T07:19:15;17.40;;;12.48;;
10653;SDS011;5375;51.250;6.776;2023-06-01T07:21:41;15.55;;;11.13;;
10653;SDS011;5375;51.250;6.776;2023-06-01T07:24:07;16.58;;;12.32;;
10653;SDS011;5375;51.250;6.776;2023-06-01T07:26:33;17.95;;;12.43;;
10653;SDS011;5375;51.250;6.776;2023-06-01T07:28:58;16.88;;;11.65;;
10653;SDS011;5375;51.250;6.776;2023-06-01T07:31:25;17.05;;;12.50;;
10653;SDS011;5375;51.250;6.776;2023-06-01T07:33:52;14.20;;;11.50;;
10653;SDS011;5375;51.250;6.776;2023-06-01T07:36:21;13.77;;;11.23;;
10653;SDS011;5375;51.250;6.776;2023-06-01T07:38:48;17.10;;;11.18;;
10653;SDS011;5375;51.250;6.776;2023-06-01T07:41:14;13.45;;;10.70;;
10653;SDS011;5375;51.250;6.776;2023-06-01T07:43:40;13.48;;;10.52;;
10653;SDS011;5375;51.250;6.776;2023-06-01T07:46:06;14.50;;;10.98;;
10653;SDS011;5375;51.250;6.776;2023-06-01T07:48:32;13.15;;;9.88;;
10653;SDS011;5375;51.250;6.776;2023-06-01T07:51:03;11.80;;;9.82;;
10653;SDS011;5375;51.250;6.776;2023-06-01T07:53:31;13.98;;;10.52;;
10653;SDS011;5375;51.250;6.776;2023-06-01T07:55:56;12.48;;;9.88;;
10653;SDS011;5375;51.250;6.776;2023-06-01T07:58:22;12.23;;;9.98;;
10653;SDS011;5375;51.250;6.776;2023-06-01T08:00:48;11.88;;;9.95;;
10653;SDS011;5375;51.250;6.776;2023-06-01T08:03:14;15.88;;;10.23;;
10653;SDS011;5375;51.250;6.776;2023-06-01T08:05:40;15.02;;;9.50;;
10653;SDS011;5375;51.250;6.776;2023-06-01T08:08:09;10.00;;;8.63;;
10653;SDS011;5375;51.250;6.776;2023-06-01T08:10:35;12.18;;;9.20;;
10653;SDS011;5375;51.250;6.776;2023-06-01T08:13:04;11.73;;;9.43;;
10653;SDS011;5375;51.250;6.776;2023-06-01T08:15:32;10.80;;;8.70;;
10653;SDS011;5375;51.250;6.776;2023-06-01T08:17:59;13.50;;;9.07;;
10653;SDS011;5375;51.250;6.776;2023-06-01T08:20:24;12.82;;;9.30;;
10653;SDS011;5375;51.250;6.776;2023-06-01T08:22:51;10.27;;;8.40;;
10653;SDS011;5375;51.250;6.776;2023-06-01T08:25:17;11.45;;;8.80;;
10653;SDS011;5375;51.250;6.776;2023-06-01T08:27:43;10.43;;;8.95;;
10653;SDS011;5375;51.250;6.776;2023-06-01T08:30:09;12.63;;;8.90;;
10653;SDS011;5375;51.250;6.776;2023-06-01T08:32:36;11.52;;;8.50;;
10653;SDS011;5375;51.250;6.776;2023-06-01T08:35:02;11.38;;;9.05;;
10653;SDS011;5375;51.250;6.776;2023-06-01T08:37:28;10.77;;;8.45;;
10653;SDS011;5375;51.250;6.776;2023-06-01T08:39:54;12.70;;;8.32;;
10653;SDS011;5375;51.250;6.776;2023-06-01T08:42:25;11.70;;;8.45;;
10653;SDS011;5375;51.250;6.776;2023-06-01T08:45:11;10.98;;;8.32;;
10653;SDS011;5375;51.250;6.776;2023-06-01T08:47:38;10.50;;;8.00;;
10653;SDS011;5375;51.250;6.776;2023-06-01T08:50:05;10.98;;;8.50;;
10653;SDS011;5375;51.250;6.776;2023-06-01T08:52:34;10.25;;;8.30;;
10653;SDS011;5375;51.250;6.776;2023-06-01T08:55:02;10.15;;;8.07;;
10653;SDS011;5375;51.250;6.776;2023-06-01T08:57:28;8.63;;;7.30;;
10653;SDS011;5375;51.250;6.776;2023-06-01T08:59:54;8.98;;;8.07;;
10653;SDS011;5375;51.250;6.776;2023-06-01T09:02:21;14.15;;;8.23;;
10653;SDS011;5375;51.250;6.776;2023-06-01T09:04:47;9.18;;;7.68;;
10653;SDS011;5375;51.250;6.776;2023-06-01T09:07:13;9.65;;;7.80;;
10653;SDS011;5375;51.250;6.776;2023-06-01T09:09:39;12.45;;;7.93;;
10653;SDS011;5375;51.250;6.776;2023-06-01T09:15:15;10.23;;;7.32;;
10653;SDS011;5375;51.250;6.776;2023-06-01T09:17:42;7.03;;;6.28;;
10653;SDS011;5375;51.250;6.776;2023-06-01T09:20:27;10.45;;;6.40;;
10653;SDS011;5375;51.250;6.776;2023-06-01T09:22:54;11.38;;;7.53;;
10653;SDS011;5375;51.250;6.776;2023-06-01T09:25:24;7.90;;;6.13;;
10653;SDS011;5375;51.250;6.776;2023-06-01T09:27:55;10.43;;;7.15;;
10653;SDS011;5375;51.250;6.776;2023-06-01T09:30:23;8.32;;;6.25;;
10653;SDS011;5375;51.250;6.776;2023-06-01T09:32:50;8.35;;;6.40;;
10653;SDS011;5375;51.250;6.776;2023-06-01T09:38:06;10.15;;;6.65;;
10653;SDS011;5375;51.250;6.776;2023-06-01T09:40:32;8.27;;;6.25;;
10653;SDS011;5375;51.250;6.776;2023-06-01T09:42:59;8.48;;;5.90;;
10653;SDS011;5375;51.250;6.776;2023-06-01T09:45:27;9.35;;;6.25;;
10653;SDS011;5375;51.250;6.776;2023-06-01T09:47:57;7.18;;;5.50;;
10653;SDS011;5375;51.250;6.776;2023-06-01T09:50:41;7.18;;;5.20;;
10653;SDS011;5375;51.250;6.776;2023-06-01T09:53:07;8.10;;;5.50;;
10653;SDS011;5375;51.250;6.776;2023-06-01T09:55:33;9.02;;;5.38;;
10653;SDS011;5375;51.250;6.776;2023-06-01T10:00:47;8.50;;;5.70;;
10653;SDS011;5375;51.250;6.776;2023-06-01T10:03:15;8.40;;;5.45;;
10653;SDS011;5375;51.250;6.776;2023-06-01T10:05:42;8.15;;;5.55;;
10653;SDS011;5375;51.250;6.776;2023-06-01T10:08:10;7.20;;;5.45;;
10653;SDS011;5375;51.250;6.776;2023-06-01T10:10:37;7.13;;;5.00;;
10653;SDS011;5375;51.250;6.776;2023-06-01T10:13:04;8.88;;;5.28;;
10653;SDS011;5375;51.250;6.776;2023-06-01T10:15:31;7.18;;;4.85;;
10653;SDS011;5375;51.250;6.776;2023-06-01T10:17:57;7.32;;;5.25;;
10653;SDS011;5375;51.250;6.776;2023-06-01T10:20:24;8.60;;;4.90;;
10653;SDS011;5375;51.250;6.776;2023-06-01T10:22:50;8.00;;;5.38;;
10653;SDS011;5375;51.250;6.776;2023-06-01T10:25:17;12.93;;;5.78;;
10653;SDS011;5375;51.250;6.776;2023-06-01T10:27:51;9.43;;;5.32;;
10653;SDS011;5375;51.250;6.776;2023-06-01T10:30:22;8.25;;;5.15;;
10653;SDS011;5375;51.250;6.776;2023-06-01T10:32:48;9.27;;;5.25;;
10653;SDS011;5375;51.250;6.776;2023-06-01T10:40:35;7.03;;;4.60;;
10653;SDS011;5375;51.250;6.776;2023-06-01T10:43:02;9.88;;;5.45;;
10653;SDS011;5375;51.250;6.776;2023-06-01T10:48:01;6.40;;;4.97;;
10653;SDS011;5375;51.250;6.776;2023-06-01T10:50:28;8.63;;;5.38;;
10653;SDS011;5375;51.250;6.776;2023-06-01T10:52:54;8.68;;;5.53;;
10653;SDS011;5375;51.250;6.776;2023-06-01T10:55:22;7.47;;;4.97;;
10653;SDS011;5375;51.250;6.776;2023-06-01T10:57:49;7.20;;;5.07;;
10653;SDS011;5375;51.250;6.776;2023-06-01T11:00:25;10.35;;;5.38;;
10653;SDS011;5375;51.250;6.776;2023-06-01T11:08:10;12.40;;;6.55;;
10653;SDS011;5375;51.250;6.776;2023-06-01T11:10:58;10.90;;;5.72;;
10653;SDS011;5375;51.250;6.776;2023-06-01T11:21:16;8.45;;;4.90;;
10653;SDS011;5375;51.250;6.776;2023-06-01T11:23:43;9.70;;;5.45;;
10653;SDS011;5375;51.250;6.776;2023-06-01T11:26:10;7.97;;;5.13;;
10653;SDS011;5375;51.250;6.776;2023-06-01T11:28:41;7.68;;;4.85;;
10653;SDS011;5375;51.250;6.776;2023-06-01T11:31:11;8.40;;;4.45;;
10653;SDS011;5375;51.250;6.776;2023-06-01T11:33:38;10.40;;;4.63;;
10653;SDS011;5375;51.250;6.776;2023-06-01T11:36:08;8.23;;;5.28;;
10653;SDS011;5375;51.250;6.776;2023-06-01T11:38:39;8.95;;;5.20;;
10653;SDS011;5375;51.250;6.776;2023-06-01T11:41:06;8.88;;;5.28;;
10653;SDS011;5375;51.250;6.776;2023-06-01T11:43:33;7.85;;;5.50;;
10653;SDS011;5375;51.250;6.776;2023-06-01T11:46:06;8.90;;;5.18;;
10653;SDS011;5375;51.250;6.776;2023-06-01T11:48:33;8.05;;;5.28;;
10653;SDS011;5375;51.250;6.776;2023-06-01T11:50:59;8.13;;;5.15;;
10653;SDS011;5375;51.250;6.776;2023-06-01T11:53:26;9.07;;;5.47;;
10653;SDS011;5375;51.250;6.776;2023-06-01T11:55:54;8.38;;;5.05;;
10653;SDS011;5375;51.250;6.776;2023-06-01T12:00:47;7.38;;;4.38;;
10653;SDS011;5375;51.250;6.776;2023-06-01T12:03:13;7.65;;;4.50;;
10653;SDS011;5375;51.250;6.776;2023-06-01T12:05:39;7.93;;;4.65;;
10653;SDS011;5375;51.250;6.776;2023-06-01T12:08:17;8.82;;;5.72;;
10653;SDS011;5375;51.250;6.776;2023-06-01T12:10:47;11.52;;;4.88;;
10653;SDS011;5375;51.250;6.776;2023-06-01T12:13:15;7.95;;;4.40;;
10653;SDS011;5375;51.250;6.776;2023-06-01T12:15:42;9.57;;;4.93;;
10653;SDS011;5375;51.250;6.776;2023-06-01T12:18:08;7.53;;;4.68;;
10653;SDS011;5375;51.250;6.776;2023-06-01T12:20:38;6.10;;;4.60;;
10653;SDS011;5375;51.250;6.776;2023-06-01T12:25:35;8.50;;;4.80;;
10653;SDS011;5375;51.250;6.776;2023-06-01T12:28:05;8.68;;;5.07;;
10653;SDS011;5375;51.250;6.776;2023-06-01T12:30:32;7.93;;;4.78;;
10653;SDS011;5375;51.250;6.776;2023-06-01T12:32:59;6.82;;;4.50;;
10653;SDS011;5375;51.250;6.776;2023-06-01T12:35:25;8.48;;;5.40;;
10653;SDS011;5375;51.250;6.776;2023-06-01T12:38:24;10.13;;;5.07;;
10653;SDS011;5375;51.250;6.776;2023-06-01T12:40:42;6.97;;;4.70;;
10653;SDS011;5375;51.250;6.776;2023-06-01T12:43:18;7.15;;;5.00;;
10653;SDS011;5375;51.250;6.776;2023-06-01T12:45:44;9.20;;;4.57;;
10653;SDS011;5375;51.250;6.776;2023-06-01T12:48:28;7.60;;;4.05;;
10653;SDS011;5375;51.250;6.776;2023-06-01T12:50:55;7.43;;;4.32;;
10653;SDS011;5375;51.250;6.776;2023-06-01T12:53:21;5.90;;;4.25;;
10653;SDS011;5375;51.250;6.776;2023-06-01T12:55:47;5.13;;;4.18;;
10653;SDS011;5375;51.250;6.776;2023-06-01T12:58:13;5.93;;;4.00;;
10653;SDS011;5375;51.250;6.776;2023-06-01T13:00:39;4.45;;;3.67;;
10653;SDS011;5375;51.250;6.776;2023-06-01T13:03:04;5.97;;;4.10;;
10653;SDS011;5375;51.250;6.776;2023-06-01T13:05:32;7.78;;;4.50;;
10653;SDS011;5375;51.250;6.776;2023-06-01T13:07:58;8.93;;;4.38;;
10653;SDS011;5375;51.250;6.776;2023-06-01T13:10:25;6.93;;;4.85;;
10653;SDS011;5375;51.250;6.776;2023-06-01T13:12:51;7.45;;;4.50;;
10653;SDS011;5375;51.250;6.776;2023-06-01T13:15:17;7.47;;;3.78;;
10653;SDS011;5375;51.250;6.776;2023-06-01T13:17:43;5.68;;;4.60;;
10653;SDS011;5375;51.250;6.776;2023-06-01T13:20:09;5.88;;;4.05;;
10653;SDS011;5375;51.250;6.776;2023-06-01T13:22:37;4.68;;;3.90;;
10653;SDS011;5375;51.250;6.776;2023-06-01T13:25:03;4.65;;;3.35;;
10653;SDS011;5375;51.250;6.776;2023-06-01T13:27:29;5.35;;;3.75;;
10653;SDS011;5375;51.250;6.776;2023-06-01T13:29:56;5.57;;;3.58;;
10653;SDS011;5375;51.250;6.776;2023-06-01T13:32:22;4.88;;;3.78;;
10653;SDS011;5375;51.250;6.776;2023-06-01T13:34:47;6.85;;;3.83;;
10653;SDS011;5375;51.250;6.776;2023-06-01T13:37:13;5.15;;;3.90;;
10653;SDS011;5375;51.250;6.776;2023-06-01T13:39:39;4.13;;;3.63;;
10653;SDS011;5375;51.250;6.776;2023-06-01T13:42:06;5.57;;;3.88;;
10653;SDS011;5375;51.250;6.776;2023-06-01T13:44:32;6.20;;;3.55;;
10653;SDS011;5375;51.250;6.776;2023-06-01T13:46:58;6.80;;;3.85;;
10653;SDS011;5375;51.250;6.776;2023-06-01T13:49:23;5.55;;;3.20;;
10653;SDS011;5375;51.250;6.776;2023-06-01T13:51:49;3.35;;;3.05;;
10653;SDS011;5375;51.250;6.776;2023-06-01T13:54:16;6.45;;;3.95;;
10653;SDS011;5375;51.250;6.776;2023-06-01T13:56:41;5.43;;;3.50;;
10653;SDS011;5375;51.250;6.776;2023-06-01T13:59:07;4.43;;;2.95;;
10653;SDS011;5375;51.250;6.776;2023-06-01T14:01:33;4.10;;;3.35;;
10653;SDS011;5375;51.250;6.776;2023-06-01T14:04:02;5.10;;;3.40;;
10653;SDS011;5375;51.250;6.776;2023-06-01T14:06:28;4.97;;;3.33;;
10653;SDS011;5375;51.250;6.776;2023-06-01T14:08:54;5.03;;;3.58;;
10653;SDS011;5375;51.250;6.776;2023-06-01T14:11:20;4.35;;;2.92;;
10653;SDS011;5375;51.250;6.776;2023-06-01T14:13:46;4.70;;;3.75;;
10653;SDS011;5375;51.250;6.776;2023-06-01T14:16:12;3.42;;;3.03;;
10653;SDS011;5375;51.250;6.776;2023-06-01T14:18:38;4.68;;;3.25;;
10653;SDS011;5375;51.250;6.776;2023-06-01T14:21:04;5.25;;;3.22;;
10653;SDS011;5375;51.250;6.776;2023-06-01T14:23:30;5.63;;;3.60;;
10653;SDS011;5375;51.250;6.776;2023-06-01T14:25:56;5.32;;;3.67;;
10653;SDS011;5375;51.250;6.776;2023-06-01T14:28:21;4.55;;;3.40;;
10653;SDS011;5375;51.250;6.776;2023-06-01T14:30:47;4.70;;;3.47;;
10653;SDS011;5375;51.250;6.776;2023-06-01T14:33:13;3.72;;;3.13;;
10653;SDS011;5375;51.250;6.776;2023-06-01T14:35:39;4.70;;;3.13;;
10653;SDS011;5375;51.250;6.776;2023-06-01T14:38:05;5.25;;;3.70;;
10653;SDS011;5375;51.250;6.776;2023-06-01T14:40:31;3.50;;;3.13;;
10653;SDS011;5375;51.250;6.776;2023-06-01T14:43:03;4.03;;;3.10;;
10653;SDS011;5375;51.250;6.776;2023-06-01T14:45:28;3.47;;;2.97;;
10653;SDS011;5375;51.250;6.776;2023-06-01T14:47:54;3.33;;;3.00;;
10653;SDS011;5375;51.250;6.776;2023-06-01T14:50:20;4.97;;;3.10;;
10653;SDS011;5375;51.250;6.776;2023-06-01T14:52:46;4.18;;;3.15;;
10653;SDS011;5375;51.250;6.776;2023-06-01T14:55:12;4.68;;;3.35;;
10653;SDS011;5375;51.250;6.776;2023-06-01T14:57:39;3.78;;;2.80;;
10653;SDS011;5375;51.250;6.776;2023-06-01T15:00:05;4.40;;;3.17;;
10653;SDS011;5375;51.250;6.776;2023-06-01T15:02:33;3.47;;;3.13;;
10653;SDS011;5375;51.250;6.776;2023-06-01T15:04:59;4.15;;;3.03;;
10653;SDS011;5375;51.250;6.776;2023-06-01T15:07:25;4.05;;;2.97;;
10653;SDS011;5375;51.250;6.776;2023-06-01T15:09:51;4.78;;;2.45;;
10653;SDS011;5375;51.250;6.776;2023-06-01T15:12:18;4.30;;;2.95;;
10653;SDS011;5375;51.250;6.776;2023-06-01T15:14:44;3.92;;;2.72;;
10653;SDS011;5375;51.250;6.776;2023-06-01T15:17:10;4.70;;;3.33;;
10653;SDS011;5375;51.250;6.776;2023-06-01T15:19:35;5.30;;;3.60;;
10653;SDS011;5375;51.250;6.776;2023-06-01T15:22:01;4.75;;;3.72;;
10653;SDS011;5375;51.250;6.776;2023-06-01T15:24:28;4.53;;;4.03;;
10653;SDS011;5375;51.250;6.776;2023-06-01T15:26:53;4.35;;;3.83;;
10653;SDS011;5375;51.250;6.776;2023-06-01T15:29:19;6.00;;;3.72;;
10653;SDS011;5375;51.250;6.776;2023-06-01T15:31:45;5.75;;;3.47;;
10653;SDS011;5375;51.250;6.776;2023-06-01T15:34:17;5.07;;;3.50;;
10653;SDS011;5375;51.250;6.776;2023-06-01T15:36:43;4.85;;;3.40;;
10653;SDS011;5375;51.250;6.776;2023-06-01T15:39:08;6.03;;;4.40;;
10653;SDS011;5375;51.250;6.776;2023-06-01T15:41:35;5.30;;;3.63;;
10653;SDS011;5375;51.250;6.776;2023-06-01T15:44:01;4.63;;;3.67;;